M I D A S
Marine Information and Data Acquisition System
Tripno 730 of the Zeeleeuw from 2004-06-07 06:53:37 to 2004-06-07 15:48:18
Back to CruiseResearch ActivitiesStationsMapUnderway DataData graphs

EquipmentUnitsComment
TimeDGPSUTC
LatitudeDGPSDM.mWGS84
LongitudeDGPSDM.mWGS84
TemperatureSBE03/SBE38deg celciusITS90
ConductivitySBE21S/mITS90
SalinitySBE21 Practical Salinity Units
ChlorophylAChelsea fluorimeterg/lCalibrated in Aceton
Missing or incorrect values are displayed as -999
Sea surface data collected by the RV Zeeleeuw from 2004-06-07 06:53:37 to 2004-06-07 15:48:18
Time Latitude Longitude Temperature Conductivity Salinity ChlorophylA
2004-06-07 06:54:40 51°13.597 2°56.092 21.74749 5.138305 31.793202 7.949486
2004-06-07 06:55:42 51°13.624 2°56.002 21.82175 5.137988 31.794011 7.949486
2004-06-07 06:56:42 51°13.665 2°55.871 21.842057 5.137566 31.793229 7.983195
2004-06-07 06:57:41 51°13.68 2°55.762 21.862714 5.137144 31.792448 7.983195
2004-06-07 06:58:41 51°13.704 2°55.773 21.787668 5.136933 31.79442 7.983195
2004-06-07 06:59:42 51°13.691 2°55.768 22.029834 5.136616 31.793511 7.983195
2004-06-07 07:00:40 51°13.745 2°55.713 21.830938 5.1363 31.793032 7.983195
2004-06-07 07:01:40 51°13.827 2°55.641 21.834093 5.136089 31.796294 7.949486
2004-06-07 07:02:41 51°13.938 2°55.564 21.80692 5.135667 31.794653 7.983195
2004-06-07 07:03:41 51°14.057 2°55.482 21.856328 5.135245 31.794731 7.949486
2004-06-07 07:04:41 51°14.19 2°55.37 21.88431 5.135139 31.796147 7.983195
2004-06-07 07:05:41 51°14.314 2°55.172 21.807709 5.134717 31.794936 7.983195
2004-06-07 07:06:40 51°14.448 2°54.921 21.784038 5.134612 31.796783 7.983195
2004-06-07 07:07:41 51°14.606 2°54.66 21.83287 5.134084 31.796128 7.949486
2004-06-07 07:08:40 51°14.77 2°54.43 21.823643 5.133767 31.79565 7.983195
2004-06-07 07:09:40 51°14.938 2°54.201 21.92382 5.133451 31.796891 7.983195
2004-06-07 07:10:41 51°15.103 2°53.954 21.869374 5.133345 31.798309 7.983195
2004-06-07 07:11:40 51°15.253 2°53.697 21.873 5.132923 31.797097 7.983195
2004-06-07 07:12:41 51°15.41 2°53.434 21.881945 5.132607 31.797479 7.983195
2004-06-07 07:13:41 51°15.559 2°53.171 21.872527 5.132501 31.798898 7.949486
2004-06-07 07:14:41 51°15.685 2°52.88 21.975863 5.132079 31.798977 8.016905
2004-06-07 07:15:40 51°15.742 2°52.541 21.887935 5.131551 31.797032 7.949486
2004-06-07 07:16:42 51°15.751 2°52.172 21.924962 5.13134 31.798148 7.983195
2004-06-07 07:17:41 51°15.723 2°51.82 21.913974 5.131129 31.800125 7.983195
2004-06-07 07:18:41 51°15.702 2°51.46 21.964292 5.130602 31.799041 7.949486
2004-06-07 07:19:42 51°15.652 2°51.102 21.898021 5.130285 31.799424 7.949486
2004-06-07 07:20:42 51°15.595 2°50.752 21.946382 5.129863 31.799504 7.983195
2004-06-07 07:21:41 51°15.539 2°50.407 21.951932 5.129652 31.801051 7.983195
2004-06-07 07:22:39 51°15.491 2°50.065 21.969409 5.12923 31.801132 7.949486
2004-06-07 07:23:41 51°15.444 2°49.697 21.974879 5.128703 31.80134 7.983195
2004-06-07 07:24:42 51°15.398 2°49.335 21.993766 5.128386 31.801724 7.983195
2004-06-07 07:25:40 51°15.354 2°48.99 21.988612 5.127858 31.801071 7.949486
2004-06-07 07:26:42 51°15.306 2°48.621 22.001477 5.127436 31.802014 7.949486
2004-06-07 07:27:42 51°15.258 2°48.263 22.021536 5.126909 31.801361 7.949486
2004-06-07 07:28:41 51°15.212 2°47.912 22.021458 5.126487 31.801442 7.949486
2004-06-07 07:29:41 51°15.166 2°47.554 22.04163 5.126065 31.801954 7.949486
2004-06-07 07:30:41 51°15.119 2°47.195 22.004899 5.125537 31.801302 7.983195
2004-06-07 07:31:42 51°15.069 2°46.829 22.042691 5.125009 31.800649 7.983195
2004-06-07 07:32:42 51°15.018 2°46.467 22.074648 5.124482 31.799996 7.949486
2004-06-07 07:33:41 51°14.967 2°46.112 22.038406 5.12406 31.800509 7.983195
2004-06-07 07:34:41 51°14.914 2°45.751 22.127877 5.123532 31.80072 7.983195
2004-06-07 07:35:42 51°14.859 2°45.384 22.093469 5.123216 31.801536 7.983195
2004-06-07 07:36:41 51°14.807 2°45.028 22.093548 5.122688 31.801316 7.983195
2004-06-07 07:37:41 51°14.751 2°44.666 22.10384 5.122161 31.800663 7.983195
2004-06-07 07:38:40 51°14.695 2°44.309 22.116134 5.121738 31.801177 7.949486
2004-06-07 07:39:42 51°14.636 2°43.933 22.119041 5.121211 31.801389 7.983195
2004-06-07 07:40:42 51°14.579 2°43.569 22.142837 5.120683 31.8016 7.949486
2004-06-07 07:41:42 51°14.522 2°43.209 22.132432 5.12005 31.800213 7.983195
2004-06-07 07:42:42 51°14.468 2°42.848 22.152651 5.119523 31.800425 7.983195
2004-06-07 07:43:42 51°14.415 2°42.482 22.153907 5.118995 31.800637 7.949486
2004-06-07 07:44:41 51°14.363 2°42.122 22.172943 5.118362 31.799682 7.949486
2004-06-07 07:45:42 51°14.314 2°41.75 22.175769 5.11794 31.801062 7.983195
2004-06-07 07:46:42 51°14.271 2°41.383 22.179065 5.117307 31.799675 7.949486
2004-06-07 07:47:42 51°14.234 2°41.013 22.185696 5.116779 31.799887 7.949486
2004-06-07 07:48:41 51°14.201 2°40.647 18.173387 5.085549 31.896167 18.500529
2004-06-07 07:49:41 51°14.175 2°40.276 16.434402 4.210836 32.511208 9.297862
2004-06-07 07:50:42 51°14.151 2°39.899 16.381817 4.255026 33.213841 8.28658
2004-06-07 07:51:41 51°14.128 2°39.537 16.283441 4.285188 33.538349 7.679811
2004-06-07 07:52:42 51°14.102 2°39.16 16.222237 4.286033 33.642831 7.511264
2004-06-07 07:53:41 51°14.079 2°38.796 16.202407 4.290674 33.709831 7.241589
2004-06-07 07:54:42 51°14.051 2°38.417 16.184966 4.293206 33.782908 7.17417
2004-06-07 07:55:41 51°13.987 2°38.064 16.19715 4.296791 33.791816 6.769657
2004-06-07 07:56:41 51°13.922 2°37.704 16.115543 4.294156 33.817065 6.769657
2004-06-07 07:57:41 51°13.847 2°37.349 15.941353 4.280764 33.784144 6.735947
2004-06-07 07:58:42 51°13.741 2°37.009 15.82975 4.2679 33.807763 6.533691
2004-06-07 07:59:41 51°13.637 2°36.681 15.685111 4.254298 33.813042 6.533691
2004-06-07 08:00:42 51°13.529 2°36.341 15.600992 4.251558 33.87172 6.297725
2004-06-07 08:01:42 51°13.408 2°36.022 15.533216 4.253984 33.97106 6.061759
2004-06-07 08:02:42 51°13.274 2°35.719 15.47397 4.241226 33.931171 6.02805
2004-06-07 08:03:41 51°13.136 2°35.428 15.450335 4.24344 33.965825 6.061759
2004-06-07 08:04:39 51°13.001 2°35.142 15.423233 4.242386 33.977067 6.129178
2004-06-07 08:05:42 51°12.845 2°34.848 15.429501 4.243125 34.008919 5.893212
2004-06-07 08:06:42 51°12.693 2°34.573 15.440265 4.250823 34.054551 5.859503
2004-06-07 08:07:42 51°12.539 2°34.295 15.440827 4.244706 34.014022 6.061759
2004-06-07 08:08:42 51°12.378 2°34.026 15.451977 4.252194 34.079153 6.162888
2004-06-07 08:09:42 51°12.211 2°33.768 15.46615 4.249557 34.036092 6.264016
2004-06-07 08:10:42 51°12.048 2°33.525 15.488095 4.250822 34.036413 6.398853
2004-06-07 08:11:42 51°11.935 2°33.388 15.507615 4.25388 34.041774 6.398853
2004-06-07 08:12:42 51°11.858 2°33.339 15.549832 4.255145 34.041449 6.398853
2004-06-07 08:13:42 51°11.81 2°33.301 15.553759 4.263476 34.074541 6.331435
2004-06-07 08:14:42 51°11.772 2°33.26 15.548537 4.263054 34.075297 6.533691
2004-06-07 08:15:42 51°11.724 2°33.212 15.549616 4.257465 34.026646 6.735947
2004-06-07 08:16:42 51°11.66 2°33.153 15.556132 4.258098 34.029717 6.837076
2004-06-07 08:17:42 51°11.592 2°33.09 15.557858 4.262316 34.068054 6.938204
2004-06-07 08:18:42 51°11.524 2°33.025 15.568126 4.258625 34.035073 7.073042
2004-06-07 08:19:42 51°11.461 2°32.946 15.57615 4.259574 34.040324 7.275298
2004-06-07 08:20:42 51°11.4 2°32.864 15.590211 4.260101 34.026314 7.309007
2004-06-07 08:21:42 51°11.339 2°32.783 15.599526 4.25757 34.003715 7.376426
2004-06-07 08:22:42 51°11.281 2°32.693 15.612763 4.264319 34.044619 7.477554
2004-06-07 08:23:42 51°11.226 2°32.601 15.627851 4.264635 34.036479 7.679811
2004-06-07 08:24:42 51°11.184 2°32.526 15.650218 4.262737 34.00988 7.71352
2004-06-07 08:25:42 51°11.151 2°32.461 15.662411 4.261787 33.985328 7.780939
2004-06-07 08:26:42 51°11.124 2°32.402 15.673224 4.264634 34.001062 7.882067
2004-06-07 08:27:41 51°11.099 2°32.345 15.682915 4.263896 33.982268 7.915777
2004-06-07 08:28:41 51°11.07 2°32.286 15.688772 4.260521 33.941933 8.016905
2004-06-07 08:29:42 51°11.036 2°32.233 15.69971 4.26358 33.970456 8.016905
2004-06-07 08:30:42 51°10.999 2°32.185 15.702853 4.258834 33.925624 8.084324
2004-06-07 08:31:42 51°10.959 2°32.139 15.699624 4.264634 33.963157 8.151742
2004-06-07 08:32:41 51°10.919 2°32.094 15.69381 4.263579 33.959543 8.252871
2004-06-07 08:33:41 51°10.879 2°32.043 15.684853 4.261892 33.959921 8.320289
2004-06-07 08:34:40 51°10.842 2°31.988 15.676325 4.267903 34.017333 8.353999
2004-06-07 08:35:42 51°10.803 2°31.929 15.668184 4.262841 33.965807 8.387708
2004-06-07 08:36:42 51°10.767 2°31.874 15.667452 4.260416 33.963466 8.455127
2004-06-07 08:37:42 51°10.73 2°31.82 15.679512 4.262842 33.976727 8.387708
2004-06-07 08:38:41 51°10.695 2°31.765 15.680934 4.265583 33.998588 8.455127
2004-06-07 08:39:42 51°10.658 2°31.712 15.679728 4.265583 33.996659 8.522546
2004-06-07 08:40:41 51°10.622 2°31.66 15.681278 4.268009 34.020202 8.623674
2004-06-07 08:41:42 51°10.585 2°31.608 15.691787 4.269591 34.031082 8.657383
2004-06-07 08:42:42 51°10.549 2°31.556 15.692906 4.265794 33.984401 8.657383
2004-06-07 08:43:42 51°10.513 2°31.505 15.699236 4.263896 33.97777 8.589965
2004-06-07 08:44:42 51°10.478 2°31.453 15.707374 4.264106 33.95269 8.657383
2004-06-07 08:45:42 51°10.444 2°31.398 15.708708 4.265583 33.970966 8.589965
2004-06-07 08:46:43 51°10.41 2°31.341 15.706943 4.270329 34.020292 8.623674
2004-06-07 08:47:44 51°10.377 2°31.285 15.71043 4.269801 34.009169 8.589965
2004-06-07 08:48:42 51°10.346 2°31.232 15.708364 4.265899 33.973783 8.623674
2004-06-07 08:49:42 51°10.314 2°31.177 15.713099 4.267376 33.990781 8.589965
2004-06-07 08:50:43 51°10.283 2°31.119 15.708794 4.269907 34.010108 8.589965
2004-06-07 08:51:43 51°10.256 2°31.059 15.710947 4.270539 34.015743 8.691093
2004-06-07 08:52:42 51°10.233 2°30.995 15.711894 4.270117 34.001066 8.758512
2004-06-07 08:53:43 51°10.215 2°30.923 15.716199 4.279187 34.088901 8.792221
2004-06-07 08:54:42 51°10.203 2°30.849 15.716629 4.266848 33.974531 8.82593
2004-06-07 08:55:42 51°10.193 2°30.78 15.725238 4.268536 33.985059 8.82593
2004-06-07 08:56:43 51°10.185 2°30.719 15.727218 4.267903 33.98071 8.792221
2004-06-07 08:57:44 51°10.176 2°30.658 15.727649 4.27191 34.008034 8.792221
2004-06-07 08:58:42 51°10.198 2°30.572 15.710043 4.27075 34.001562 8.758512
2004-06-07 08:59:42 51°10.25 2°30.521 15.696825 4.26379 33.958854 8.758512
2004-06-07 09:00:42 51°10.299 2°30.499 15.694069 4.252823 33.868262 8.691093
2004-06-07 09:01:42 51°10.343 2°30.502 15.676713 4.264212 33.978661 8.724802
2004-06-07 09:02:43 51°10.383 2°30.53 15.645866 4.253245 33.897002 8.82593
2004-06-07 09:03:43 51°10.423 2°30.567 15.626515 4.245969 33.858447 8.893349
2004-06-07 09:04:43 51°10.464 2°30.603 15.618066 4.24017 33.831095 8.960768
2004-06-07 09:05:42 51°10.493 2°30.654 15.641772 4.244915 33.848407 8.927059
2004-06-07 09:06:43 51°10.512 2°30.719 15.65681 4.235951 33.768531 8.927059
2004-06-07 09:07:42 51°10.527 2°30.785 15.743529 4.257463 33.896119 8.927059
2004-06-07 09:08:42 51°10.543 2°30.852 15.757426 4.261048 33.904336 8.893349
2004-06-07 09:09:43 51°10.562 2°30.918 15.736041 4.256513 33.862088 8.893349
2004-06-07 09:10:47 51°10.583 2°30.99 15.700313 4.246285 33.80304 8.927059
2004-06-07 09:11:48 51°10.605 2°31.057 15.672276 4.243438 33.805812 8.960768
2004-06-07 09:12:48 51°10.627 2°31.123 15.679728 4.247445 33.825505 9.028187
2004-06-07 09:13:46 51°10.647 2°31.188 15.701432 4.250187 33.842876 8.994477
2004-06-07 09:14:48 51°10.67 2°31.256 15.703972 4.249026 33.821048 9.028187
2004-06-07 09:15:48 51°10.7 2°31.316 15.721967 4.263474 33.95283 8.960768
2004-06-07 09:16:48 51°10.731 2°31.373 15.726142 4.259361 33.895086 8.960768
2004-06-07 09:17:45 51°10.763 2°31.428 15.730317 4.253033 33.847113 8.994477
2004-06-07 09:18:49 51°10.798 2°31.486 15.730834 4.265899 33.961592 9.095606
2004-06-07 09:19:52 51°10.833 2°31.536 15.738881 4.260415 33.910229 9.061896
2004-06-07 09:20:52 51°10.866 2°31.583 15.735352 4.255881 33.861574 9.129315
2004-06-07 09:21:52 51°10.896 2°31.632 15.736213 4.256619 33.868778 9.297862
2004-06-07 09:22:49 51°10.924 2°31.682 15.741937 4.259572 33.899522 9.331571
2004-06-07 09:23:57 51°10.954 2°31.745 15.74766 4.25567 33.859698 9.500118
2004-06-07 09:25:02 51°10.981 2°31.806 15.762158 4.26031 33.887536 9.466409
2004-06-07 09:26:02 51°11.012 2°31.855 15.777213 4.263789 33.906967 9.365281
2004-06-07 09:27:00 51°11.046 2°31.895 15.812214 4.272331 33.955381 9.365281
2004-06-07 09:28:08 51°11.093 2°31.932 15.834907 4.268956 33.902401 9.297862
2004-06-07 09:29:07 51°11.131 2°31.962 15.822272 4.267796 33.895293 9.297862
2004-06-07 09:30:06 51°11.162 2°32.005 15.791362 4.270222 33.930886 9.39899
2004-06-07 09:31:12 51°11.187 2°32.064 15.774246 4.265898 33.909729 9.4327
2004-06-07 09:32:18 51°11.207 2°32.128 15.779579 4.257567 33.849108 9.4327
2004-06-07 09:33:18 51°11.218 2°32.173 15.783793 4.2698 33.951447 9.365281
2004-06-07 09:34:17 51°11.228 2°32.203 15.794845 4.265582 33.912032 9.4327
2004-06-07 09:35:17 51°11.237 2°32.22 15.833532 4.274756 33.972453 9.466409
2004-06-07 09:36:15 51°11.245 2°32.227 15.866442 4.265897 33.856765 9.500118
2004-06-07 09:37:17 51°11.253 2°32.229 15.876363 4.267163 33.847615 9.466409
2004-06-07 09:38:16 51°11.259 2°32.225 15.892209 4.263577 33.82091 9.601247
2004-06-07 09:39:17 51°11.264 2°32.217 15.888602 4.27813 33.923839 9.634956
2004-06-07 09:40:17 51°11.268 2°32.207 15.906076 4.241642 33.614483 9.736084
2004-06-07 09:41:17 51°11.271 2°32.194 15.929897 4.272962 33.859584 9.803503
2004-06-07 09:42:21 51°11.28 2°32.183 15.936848 4.274966 33.86716 9.870922
2004-06-07 09:43:22 51°11.291 2°32.173 15.939766 4.260096 33.720948 9.870922
2004-06-07 09:44:20 51°11.304 2°32.162 15.935175 4.249445 33.635564 9.870922
2004-06-07 09:45:28 51°11.323 2°32.14 15.95002 4.270747 33.827898 9.769794
2004-06-07 09:46:28 51°11.338 2°32.107 15.925176 4.270009 33.81438 9.803503
2004-06-07 09:47:28 51°11.349 2°32.06 15.88375 4.269799 33.844269 9.803503
2004-06-07 09:48:28 51°11.353 2°32.006 15.868718 4.267057 33.841589 9.870922
2004-06-07 09:49:28 51°11.351 2°31.955 15.885467 4.270221 33.863911 9.837212
2004-06-07 09:50:28 51°11.346 2°31.906 15.898821 4.272435 33.875904 9.904631
2004-06-07 09:51:28 51°11.367 2°31.808 15.861975 4.2679 33.832533 9.870922
2004-06-07 09:52:28 51°11.434 2°31.805 15.944957 4.276442 33.908881 9.466409
2004-06-07 09:53:26 51°11.56 2°31.959 15.84204 4.270959 33.850097 9.129315
2004-06-07 09:54:26 51°11.684 2°32.194 15.860514 4.265476 33.861943 9.736084
2004-06-07 09:55:27 51°11.801 2°32.446 15.858495 4.27233 33.892166 9.837212
2004-06-07 09:56:28 51°11.918 2°32.699 15.867172 4.263261 33.821285 9.803503
2004-06-07 09:57:27 51°12.03 2°32.948 15.873271 4.267585 33.858995 9.904631
2004-06-07 09:58:27 51°12.147 2°33.199 15.866614 4.267057 33.842225 9.904631
2004-06-07 09:59:28 51°12.266 2°33.456 15.842427 4.271803 33.90853 10.005759
2004-06-07 10:00:28 51°12.383 2°33.711 15.839935 4.27117 33.899088 10.073178
2004-06-07 10:01:26 51°12.497 2°33.957 15.839419 4.268745 33.88713 10.208016
2004-06-07 10:02:27 51°12.617 2°34.217 15.839419 4.267374 33.875601 10.309144
2004-06-07 10:03:28 51°12.737 2°34.476 15.853383 4.265581 33.858418 10.309144
2004-06-07 10:04:28 51°12.856 2°34.731 15.921313 4.267268 33.841551 10.443982
2004-06-07 10:05:28 51°12.974 2°34.982 16.023083 4.273594 33.82962 10.477691
2004-06-07 10:06:28 51°13.074 2°35.251 16.125984 4.285193 33.84979 10.949623
2004-06-07 10:07:28 51°13.171 2°35.52 16.214887 4.295632 33.845828 10.949623
2004-06-07 10:08:27 51°13.268 2°35.784 16.251543 4.301432 33.848989 10.949623
2004-06-07 10:09:26 51°13.365 2°36.045 16.282331 4.30101 33.822621 11.08446
2004-06-07 10:10:28 51°13.467 2°36.319 16.291979 4.296685 33.756365 11.050751
2004-06-07 10:11:27 51°13.565 2°36.577 16.292662 4.294576 33.733453 11.11817
2004-06-07 10:12:27 51°13.648 2°36.854 16.296162 4.289197 33.681847 11.11817
2004-06-07 10:13:28 51°13.732 2°37.134 16.316135 4.282764 33.627253 11.151879
2004-06-07 10:14:28 51°13.815 2°37.41 16.3271 4.276858 33.550507 11.286717
2004-06-07 10:15:27 51°13.894 2°37.683 16.36084 4.269687 33.471493 11.286717
2004-06-07 10:16:28 51°13.975 2°37.966 16.336059 4.265574 33.439801 11.387845
2004-06-07 10:17:27 51°14.029 2°38.257 16.348173 4.263254 33.416377 11.522683
2004-06-07 10:18:28 51°14.052 2°38.568 16.350988 4.259563 33.375385 11.354136
2004-06-07 10:19:27 51°13.933 2°38.807 16.353078 4.253763 33.328928 11.69123
2004-06-07 10:20:28 51°13.713 2°38.715 16.349495 4.24617 33.253216 11.455264
2004-06-07 10:21:28 51°13.502 2°38.532 16.405259 4.24617 33.248287 11.724939
2004-06-07 10:22:28 51°13.29 2°38.345 16.402873 4.251548 33.260841 11.724939
2004-06-07 10:23:27 51°13.085 2°38.147 16.384588 4.256715 33.32575 11.826067
2004-06-07 10:24:27 51°12.877 2°37.947 16.383309 4.262304 33.369709 11.859777
2004-06-07 10:25:25 51°12.675 2°37.755 16.339131 4.267367 33.439388 11.994614
2004-06-07 10:26:28 51°12.455 2°37.55 16.318055 4.27148 33.499624 12.129452
2004-06-07 10:27:28 51°12.25 2°37.338 16.311441 4.278757 33.574004 12.23058
2004-06-07 10:28:28 51°12.047 2°37.126 16.306021 4.286033 33.640333 12.264289
2004-06-07 10:29:28 51°11.835 2°36.951 16.298765 4.292677 33.706142 12.129452
2004-06-07 10:30:27 51°11.617 2°36.807 16.295009 4.295103 33.736831 12.196871
2004-06-07 10:31:27 51°11.395 2°36.659 16.278617 4.296263 33.75454 12.331708
2004-06-07 10:32:28 51°11.169 2°36.507 16.249578 4.295525 33.761854 12.399127
2004-06-07 10:33:28 51°10.948 2°36.358 16.253081 4.295526 33.788229 12.028324
2004-06-07 10:34:26 51°10.733 2°36.214 16.200911 4.303857 33.852066 11.320426
2004-06-07 10:35:33 51°10.486 2°36.05 16.18223 4.300061 33.876644 11.286717
2004-06-07 10:36:33 51°10.266 2°35.909 16.254405 4.30217 33.866829 11.590101
2004-06-07 10:37:32 51°10.05 2°35.76 16.269052 4.307654 33.87538 11.994614
2004-06-07 10:38:32 51°9.835 2°35.605 16.870573 4.31946 33.639995 11.286717
2004-06-07 10:39:32 51°9.618 2°35.44 16.955261 4.327578 33.557895 11.219298
2004-06-07 10:40:32 51°9.4 2°35.277 16.645148 4.324099 33.611264 11.151879
2004-06-07 10:41:33 51°9.179 2°35.11 16.571301 4.313977 33.65346 11.354136
2004-06-07 10:42:32 51°8.992 2°34.967 16.547108 4.313871 33.669277 11.185589
2004-06-07 10:43:32 51°8.877 2°34.899 16.643874 4.310391 33.639527 11.11817
2004-06-07 10:44:33 51°8.804 2°34.872 16.803705 4.317982 33.57472 10.915913
2004-06-07 10:45:33 51°8.773 2°34.839 16.886021 4.32684 33.560079 11.017042
2004-06-07 10:46:33 51°8.761 2°34.793 16.770777 4.329793 33.589374 11.65752
2004-06-07 10:47:33 51°8.739 2°34.75 16.701521 4.325575 33.626562 12.466546
2004-06-07 10:48:32 51°8.716 2°34.706 16.63538 4.323151 33.672141 12.736221
2004-06-07 10:49:32 51°8.693 2°34.659 16.613503 4.320409 33.684775 13.005896
2004-06-07 10:50:32 51°8.666 2°34.608 16.678901 4.321253 33.677882 13.140734
2004-06-07 10:51:32 51°8.631 2°34.532 16.975634 4.331164 33.609869 12.702512
2004-06-07 10:52:32 51°8.599 2°34.442 17.004283 4.345294 33.581524 12.062033
2004-06-07 10:53:34 51°8.567 2°34.349 16.912972 4.343501 33.607603 12.432836
2004-06-07 10:54:32 51°8.537 2°34.266 16.86761 4.339495 33.63298 12.837349
2004-06-07 10:55:33 51°8.506 2°34.183 16.851862 4.338546 33.64195 12.702512
2004-06-07 10:56:33 51°8.477 2°34.104 16.845341 4.33823 33.65027 12.76993
2004-06-07 10:57:33 51°8.45 2°34.025 16.835221 4.338757 33.659765 12.938477
2004-06-07 10:58:32 51°8.425 2°33.951 16.830689 4.338019 33.665051 13.241862
2004-06-07 10:59:32 51°8.4 2°33.879 16.816161 4.338863 33.676683 13.241862
2004-06-07 11:00:33 51°8.376 2°33.809 16.808408 4.338336 33.679497 13.3767
2004-06-07 11:01:33 51°8.351 2°33.742 16.798791 4.338336 33.689357 13.410409
2004-06-07 11:02:33 51°8.326 2°33.676 16.797689 4.338547 33.693038 13.410409
2004-06-07 11:03:33 51°8.301 2°33.612 16.79663 4.339179 33.696067 13.444118
2004-06-07 11:04:33 51°8.276 2°33.549 16.795146 4.339074 33.701318 13.646375
2004-06-07 11:05:33 51°8.25 2°33.488 16.787985 4.33918 33.704702 13.781212
2004-06-07 11:06:33 51°8.225 2°33.427 16.778958 4.33918 33.707786 13.747503
2004-06-07 11:07:34 51°8.2 2°33.365 16.773363 4.338653 33.715549 13.814922
2004-06-07 11:08:33 51°8.176 2°33.304 16.782264 4.338652 33.711228 13.949759
2004-06-07 11:09:33 51°8.152 2°33.241 16.780611 4.338758 33.710292 14.017178
2004-06-07 11:10:32 51°8.128 2°33.178 16.79718 4.338863 33.701336 13.983469
2004-06-07 11:11:33 51°8.103 2°33.113 16.807434 4.339812 33.70403 13.949759
2004-06-07 11:12:33 51°8.078 2°33.047 16.815271 4.340761 33.702406 13.781212
2004-06-07 11:13:33 51°8.054 2°32.98 16.820312 4.341499 33.703268 13.578956
2004-06-07 11:14:33 51°8.031 2°32.913 16.808874 4.34171 33.706948 13.578956
2004-06-07 11:15:33 51°8.007 2°32.846 16.810654 4.341394 33.711601 13.747503
2004-06-07 11:16:33 51°7.983 2°32.779 16.806163 4.341816 33.713414 13.511537
2004-06-07 11:17:33 51°7.959 2°32.713 16.803112 4.341922 33.719265 13.680084
2004-06-07 11:18:32 51°7.936 2°32.648 16.798113 4.342343 33.725397 13.747503
2004-06-07 11:19:33 51°7.912 2°32.582 16.796799 4.342554 33.730315 13.646375
2004-06-07 11:20:33 51°7.889 2°32.517 16.796799 4.342765 33.733382 13.747503
2004-06-07 11:21:32 51°7.866 2°32.452 16.790231 4.343082 33.734279 13.511537
2004-06-07 11:22:33 51°7.842 2°32.386 16.791078 4.343609 33.744417 13.814922
2004-06-07 11:23:34 51°7.818 2°32.321 16.787773 4.34382 33.748721 13.680084
2004-06-07 11:24:33 51°7.796 2°32.257 16.782391 4.343926 33.752727 13.511537
2004-06-07 11:25:33 51°7.777 2°32.19 16.772939 4.344242 33.756094 13.612665
2004-06-07 11:26:34 51°7.76 2°32.102 16.765266 4.343609 33.764195 13.680084
2004-06-07 11:27:33 51°7.75 2°32.004 16.759925 4.344559 33.773685 13.747503
2004-06-07 11:28:33 51°7.748 2°31.92 16.746611 4.344453 33.786384 13.410409
2004-06-07 11:29:33 51°7.748 2°31.854 16.732786 4.344981 33.795306 13.107024
2004-06-07 11:30:34 51°7.747 2°31.797 16.707376 4.343399 33.800752 13.174443
2004-06-07 11:31:32 51°7.746 2°31.749 16.693925 4.34245 33.807374 13.208153
2004-06-07 11:32:33 51°7.762 2°31.691 16.686159 4.34129 33.8072 13.208153
2004-06-07 11:33:34 51°7.817 2°31.696 16.657802 4.340131 33.817584 13.241862
2004-06-07 11:34:32 51°7.824 2°31.749 16.63194 4.337494 33.810759 11.859777
2004-06-07 11:35:33 51°7.825 2°31.805 16.596719 4.334542 33.815476 11.893486
2004-06-07 11:36:33 51°7.829 2°31.874 16.656613 4.335069 33.810123 11.792358
2004-06-07 11:37:34 51°7.836 2°31.949 16.692949 4.33897 33.800024 11.556392
2004-06-07 11:38:33 51°7.841 2°32.025 16.698848 4.339708 33.794663 11.65752
2004-06-07 11:39:33 51°7.852 2°32.094 16.733507 4.340974 33.786458 11.826067
2004-06-07 11:40:33 51°7.872 2°32.152 16.722055 4.343504 33.790514 11.69123
2004-06-07 11:41:33 51°7.889 2°32.208 16.690997 4.341079 33.791096 11.859777
2004-06-07 11:42:32 51°7.898 2°32.268 16.657717 4.337705 33.788998 12.23058
2004-06-07 11:43:34 51°7.914 2°32.326 16.664807 4.335279 33.780897 12.297999
2004-06-07 11:44:34 51°7.93 2°32.381 16.697999 4.336334 33.769612 12.163161
2004-06-07 11:45:34 51°7.943 2°32.438 16.694349 4.336017 33.75756 12.297999
2004-06-07 11:46:33 51°7.958 2°32.491 16.710219 4.33549 33.745536 12.297999
2004-06-07 11:47:34 51°7.976 2°32.544 16.727357 4.335384 33.732239 12.129452
2004-06-07 11:48:33 51°7.992 2°32.595 16.735458 4.335173 33.718653 12.129452
2004-06-07 11:49:33 51°8.008 2°32.644 16.732023 4.333907 33.707645 12.062033
2004-06-07 11:50:33 51°8.025 2°32.693 16.718322 4.331798 33.695478 12.095742
2004-06-07 11:51:34 51°8.042 2°32.745 16.696471 4.328107 33.679431 12.196871
2004-06-07 11:52:33 51°8.058 2°32.796 16.676524 4.32526 33.667628 12.196871
2004-06-07 11:53:34 51°8.075 2°32.848 16.661029 4.321991 33.655236 12.129452
2004-06-07 11:54:33 51°8.092 2°32.898 16.648503 4.319671 33.646777 12.028324
2004-06-07 11:55:33 51°8.109 2°32.948 16.647993 4.317456 33.635524 11.960905
2004-06-07 11:56:33 51°8.128 2°32.996 16.655042 4.316085 33.619256 11.859777
2004-06-07 11:57:33 51°8.148 2°33.042 16.666803 4.315558 33.611576 11.859777
2004-06-07 11:58:33 51°8.168 2°33.089 16.668586 4.31619 33.610293 11.792358
2004-06-07 11:59:34 51°8.187 2°33.137 16.679538 4.317034 33.605293 11.758648
2004-06-07 12:00:32 51°8.206 2°33.186 16.665105 4.317034 33.605293 11.826067
2004-06-07 12:01:33 51°8.225 2°33.236 16.657378 4.316085 33.61308 11.960905
2004-06-07 12:02:34 51°8.246 2°33.286 16.671642 4.317561 33.620995 11.960905
2004-06-07 12:03:33 51°8.264 2°33.333 16.680811 4.319248 33.623335 11.994614
2004-06-07 12:04:32 51°8.283 2°33.381 16.676566 4.319249 33.626422 11.994614
2004-06-07 12:05:33 51°8.304 2°33.434 16.684673 4.319459 33.625788 12.095742
2004-06-07 12:06:34 51°8.323 2°33.483 16.690657 4.320619 33.629711 12.129452
2004-06-07 12:07:34 51°8.341 2°33.537 16.692864 4.320936 33.628144 12.264289
2004-06-07 12:08:33 51°8.362 2°33.592 16.707631 4.322096 33.622194 12.163161
2004-06-07 12:09:34 51°8.383 2°33.648 16.707843 4.322306 33.624029 12.23058
2004-06-07 12:10:34 51°8.409 2°33.687 16.705 4.321779 33.623143 12.264289
2004-06-07 12:11:32 51°8.43 2°33.694 16.701648 4.321252 33.621024 12.365418
2004-06-07 12:12:38 51°8.449 2°33.683 16.699866 4.321463 33.622242 12.533965
2004-06-07 12:13:38 51°8.463 2°33.665 16.694816 4.321463 33.629029 12.601383
2004-06-07 12:14:38 51°8.472 2°33.642 16.680344 4.321041 33.630296 12.837349
2004-06-07 12:15:38 51°8.481 2°33.615 16.684758 4.320619 33.634651 12.904768
2004-06-07 12:16:38 51°8.488 2°33.578 16.660859 4.320725 33.642364 13.174443
2004-06-07 12:17:38 51°8.489 2°33.533 16.630411 4.31946 33.649268 13.309281
2004-06-07 12:18:38 51°8.484 2°33.483 16.617922 4.317984 33.656819 13.3767
2004-06-07 12:19:38 51°8.473 2°33.431 16.598504 4.317457 33.666464 13.410409
2004-06-07 12:20:38 51°8.455 2°33.382 16.586902 4.316191 33.66596 13.275571
2004-06-07 12:21:39 51°8.432 2°33.34 16.581844 4.315875 33.670018 13.3767
2004-06-07 12:22:38 51°8.406 2°33.307 16.573512 4.31577 33.672198 13.309281
2004-06-07 12:23:38 51°8.376 2°33.284 16.577976 4.314821 33.673838 13.3767
2004-06-07 12:24:38 51°8.343 2°33.286 16.574702 4.315453 33.677499 13.275571
2004-06-07 12:25:44 51°8.327 2°33.336 16.596719 4.315453 33.672538 13.309281
2004-06-07 12:26:45 51°8.34 2°33.408 16.633596 4.317351 33.665544 13.107024
2004-06-07 12:27:44 51°8.356 2°33.481 16.656995 4.319354 33.647731 12.668802
2004-06-07 12:28:44 51°8.37 2°33.554 16.661963 4.319776 33.642751 12.533965
2004-06-07 12:29:44 51°8.382 2°33.625 16.648545 4.318932 33.645293 12.601383
2004-06-07 12:30:49 51°8.399 2°33.697 16.663534 4.318616 33.638828 12.635093
2004-06-07 12:31:48 51°8.414 2°33.761 16.653132 4.3183 33.635455 12.567674
2004-06-07 12:32:48 51°8.432 2°33.82 16.666166 4.319143 33.639094 12.432836
2004-06-07 12:33:49 51°8.451 2°33.878 16.678264 4.319565 33.635353 12.466546
2004-06-07 12:34:49 51°8.469 2°33.934 16.695792 4.320092 33.624505 12.365418
2004-06-07 12:35:48 51°8.486 2°33.988 16.709328 4.321252 33.619173 12.331708
2004-06-07 12:36:48 51°8.504 2°34.042 16.710431 4.320935 33.613954 12.264289
2004-06-07 12:37:49 51°8.527 2°34.093 16.726509 4.321146 33.609623 12.196871
2004-06-07 12:38:49 51°8.551 2°34.146 16.699187 4.320935 33.607172 12.264289
2004-06-07 12:39:49 51°8.575 2°34.2 16.693034 4.318932 33.610091 12.399127
2004-06-07 12:40:48 51°8.597 2°34.256 16.694901 4.318826 33.602389 12.365418
2004-06-07 12:41:49 51°8.622 2°34.312 16.698975 4.318721 33.601472 12.297999
2004-06-07 12:42:49 51°8.643 2°34.371 16.689894 4.318299 33.597802 12.331708
2004-06-07 12:43:48 51°8.661 2°34.432 16.68705 4.316823 33.595438 12.500255
2004-06-07 12:44:49 51°8.68 2°34.494 16.70203 4.316084 33.583467 12.399127
2004-06-07 12:45:49 51°8.699 2°34.556 16.696683 4.316295 33.577907 12.432836
2004-06-07 12:46:48 51°8.718 2°34.618 16.719594 4.315662 33.56994 12.365418
2004-06-07 12:47:48 51°8.738 2°34.68 16.73919 4.316717 33.555105 12.196871
2004-06-07 12:48:50 51°8.76 2°34.743 16.747205 4.316189 33.544373 12.23058
2004-06-07 12:49:51 51°8.78 2°34.806 16.770056 4.316716 33.533592 12.163161
2004-06-07 12:50:52 51°8.801 2°34.87 16.783154 4.316716 33.524995 12.095742
2004-06-07 12:51:52 51°8.821 2°34.933 16.795062 4.316083 33.510911 12.163161
2004-06-07 12:52:52 51°8.841 2°34.996 16.817432 4.317137 33.496154 12.163161
2004-06-07 12:53:52 51°8.861 2°35.061 16.825818 4.317665 33.490928 12.028324
2004-06-07 12:54:52 51°8.883 2°35.126 16.85872 4.31893 33.482315 12.028324
2004-06-07 12:55:52 51°8.904 2°35.191 16.912549 4.321671 33.463289 11.927195
2004-06-07 12:56:57 51°8.927 2°35.262 16.92693 4.323569 33.459581 11.859777
2004-06-07 12:57:57 51°8.95 2°35.328 16.945706 4.324623 33.451022 11.826067
2004-06-07 12:58:56 51°8.973 2°35.394 16.965026 4.32494 33.440964 11.826067
2004-06-07 12:59:57 51°8.994 2°35.463 16.93856 4.324096 33.445243 11.859777
2004-06-07 13:00:56 51°9.015 2°35.527 16.941731 4.322303 33.441925 11.927195
2004-06-07 13:01:57 51°9.043 2°35.589 16.919994 4.322514 33.437046 11.893486
2004-06-07 13:02:57 51°9.073 2°35.648 16.89258 4.319562 33.441979 12.028324
2004-06-07 13:03:57 51°9.101 2°35.693 16.880477 4.317136 33.438065 12.163161
2004-06-07 13:04:56 51°9.127 2°35.715 16.894653 4.317453 33.435312 12.163161
2004-06-07 13:05:56 51°9.15 2°35.728 16.912465 4.318191 33.435602 12.23058
2004-06-07 13:06:56 51°9.177 2°35.767 16.821159 4.320194 33.43343 12.297999
2004-06-07 13:07:56 51°9.202 2°35.834 16.775185 4.309334 33.450492 12.871059
2004-06-07 13:08:56 51°9.227 2°35.893 16.857958 4.309755 33.435795 12.567674
2004-06-07 13:09:57 51°9.247 2°35.949 16.870869 4.315449 33.428335 12.264289
2004-06-07 13:10:56 51°9.262 2°36.008 16.841022 4.3145 33.437207 12.365418
2004-06-07 13:11:56 51°9.277 2°36.073 16.890041 4.313551 33.421048 12.264289
2004-06-07 13:12:57 51°9.296 2°36.137 16.952935 4.318507 33.414567 12.163161
2004-06-07 13:13:57 51°9.321 2°36.199 16.975339 4.321776 33.406923 12.062033
2004-06-07 13:14:57 51°9.343 2°36.262 16.952935 4.321459 33.405405 12.062033
2004-06-07 13:16:05 51°9.369 2°36.335 16.926338 4.317241 33.394489 12.23058
2004-06-07 13:17:06 51°9.392 2°36.397 16.978043 4.318612 33.389309 12.196871
2004-06-07 13:18:06 51°9.412 2°36.458 17.015603 4.32167 33.382311 12.095742
2004-06-07 13:19:05 51°9.43 2°36.519 17.034861 4.323884 33.374727 11.994614
2004-06-07 13:20:06 51°9.449 2°36.582 17.053692 4.325149 33.3717 12.028324
2004-06-07 13:21:06 51°9.47 2°36.643 17.080324 4.326204 33.36504 12.095742
2004-06-07 13:22:06 51°9.492 2°36.702 17.108254 4.328313 33.360215 12.028324
2004-06-07 13:23:06 51°9.519 2°36.759 17.136004 4.330632 33.351173 11.960905
2004-06-07 13:24:06 51°9.545 2°36.817 17.110996 4.330527 33.350869 12.062033
2004-06-07 13:25:06 51°9.569 2°36.877 17.10412 4.327047 33.345681 12.062033
2004-06-07 13:26:06 51°9.595 2°36.938 17.11108 4.327679 33.338436 12.129452
2004-06-07 13:27:06 51°9.62 2°37 17.117997 4.32789 33.337835 12.129452
2004-06-07 13:28:06 51°9.645 2°37.061 17.156451 4.32905 33.32789 12.095742
2004-06-07 13:29:05 51°9.669 2°37.119 17.167072 4.330737 33.323702 12.062033
2004-06-07 13:30:06 51°9.693 2°37.178 17.187973 4.330737 33.311643 12.062033
2004-06-07 13:31:05 51°9.716 2°37.235 17.198042 4.33137 33.303225 12.062033
2004-06-07 13:32:05 51°9.74 2°37.295 17.198042 4.330737 33.299592 12.062033
2004-06-07 13:33:06 51°9.765 2°37.358 17.250638 4.331686 33.291495 12.129452
2004-06-07 13:34:06 51°9.79 2°37.42 17.313961 4.336009 33.275126 12.062033
2004-06-07 13:35:06 51°9.816 2°37.483 17.35117 4.340332 33.267817 11.994614
2004-06-07 13:36:05 51°9.843 2°37.542 17.355668 4.340754 33.261247 11.994614
2004-06-07 13:37:06 51°9.874 2°37.602 17.307568 4.339805 33.257308 12.129452
2004-06-07 13:38:06 51°9.903 2°37.66 17.234051 4.33274 33.266285 12.331708
2004-06-07 13:39:22 51°9.938 2°37.732 17.358568 4.334954 33.243289 12.331708
2004-06-07 13:40:22 51°9.963 2°37.789 17.441315 4.33896 33.201654 12.23058
2004-06-07 13:41:21 51°9.99 2°37.847 17.506728 4.341596 33.168763 12.196871
2004-06-07 13:42:23 51°10.024 2°37.914 17.565374 4.34381 33.132996 12.095742
2004-06-07 13:43:22 51°10.097 2°38.03 17.593486 4.345707 33.114795 12.095742
2004-06-07 13:44:22 51°10.172 2°38.143 17.542031 4.340857 33.124426 12.601383
2004-06-07 13:45:23 51°10.229 2°38.192 17.769266 4.347394 33.07594 12.432836
2004-06-07 13:46:23 51°10.273 2°38.217 17.914339 4.357832 33.00986 12.163161
2004-06-07 13:47:21 51°10.295 2°38.233 17.905458 4.362893 32.978403 12.095742
2004-06-07 13:48:22 51°10.296 2°38.24 17.342974 4.354881 33.111269 13.073315
2004-06-07 13:49:23 51°10.3 2°38.25 17.201075 4.331052 33.242799 14.387982
2004-06-07 13:50:32 51°10.305 2°38.263 17.292341 4.326623 33.220384 14.4554
2004-06-07 13:51:32 51°10.31 2°38.275 17.388444 4.330418 33.164363 14.084597
2004-06-07 13:52:32 51°10.315 2°38.286 17.539264 4.333897 33.133932 13.91605
2004-06-07 13:53:32 51°10.32 2°38.299 17.578321 4.341805 33.092801 13.713794
2004-06-07 13:54:47 51°10.326 2°38.316 17.566338 4.342754 33.094376 14.017178
2004-06-07 13:55:45 51°10.332 2°38.331 17.555652 4.341489 33.097804 14.050888
2004-06-07 13:56:46 51°10.339 2°38.348 17.53197 4.341489 33.100173 14.219435
2004-06-07 13:57:47 51°10.346 2°38.373 17.532934 4.340119 33.115755 14.320563
2004-06-07 13:58:44 51°10.357 2°38.413 17.583851 4.340751 33.095066 14.48911
2004-06-07 13:59:46 51°10.372 2°38.463 17.795457 4.347393 33.024073 14.084597
2004-06-07 14:00:46 51°10.392 2°38.514 17.899203 4.355934 32.986173 13.410409
2004-06-07 14:01:45 51°10.416 2°38.562 17.844887 4.359308 32.974958 13.174443
2004-06-07 14:02:46 51°10.443 2°38.61 17.786059 4.35488 33.011225 13.241862
2004-06-07 14:03:45 51°10.469 2°38.654 17.745448 4.35815 33.071843 13.241862
2004-06-07 14:04:47 51°10.499 2°38.697 17.66704 4.361736 33.135871 13.477828
2004-06-07 14:05:45 51°10.528 2°38.733 17.6027 4.35889 33.17966 13.882341
2004-06-07 14:06:47 51°10.559 2°38.769 17.557664 4.356887 33.194615 13.91605
2004-06-07 14:07:46 51°10.63 2°38.845 17.367393 4.353723 33.205063 13.882341
2004-06-07 14:08:46 51°10.757 2°39.09 17.031863 4.328312 33.331801 14.893623
2004-06-07 14:09:46 51°10.875 2°39.412 17.11437 4.310068 33.253124 15.197007
2004-06-07 14:10:45 51°10.989 2°39.73 17.084924 4.302685 33.138297 14.927332
2004-06-07 14:11:46 51°11.109 2°40.064 17.080113 4.310382 33.119302 14.556529
2004-06-07 14:12:45 51°11.225 2°40.386 16.918725 4.291719 33.115387 14.691366
2004-06-07 14:13:46 51°11.344 2°40.723 16.877811 4.274425 33.035981 14.927332
2004-06-07 14:14:46 51°11.461 2°41.053 16.891945 4.259978 32.949684 15.163298
2004-06-07 14:15:50 51°11.585 2°41.406 16.920205 4.251225 32.856073 15.264426
2004-06-07 14:16:50 51°11.702 2°41.733 17.234893 4.250801 32.752708 15.197007
2004-06-07 14:17:51 51°11.819 2°42.068 17.212659 4.269041 32.674807 14.522819
2004-06-07 14:18:50 51°11.933 2°42.394 17.012055 4.254069 32.699461 14.691366
2004-06-07 14:19:55 51°12.059 2°42.757 17.222808 4.24363 32.68031 14.522819
2004-06-07 14:20:55 51°12.173 2°43.097 17.237335 4.261554 32.629023 14.354272
2004-06-07 14:21:56 51°12.29 2°43.443 17.285273 4.25375 32.575212 14.152016
2004-06-07 14:22:56 51°12.405 2°43.785 17.333304 4.251852 32.534332 13.983469
2004-06-07 14:23:56 51°12.489 2°44.143 17.505427 4.248371 32.480598 14.084597
2004-06-07 14:24:56 51°12.56 2°44.51 17.573755 4.259334 32.335735 13.410409
2004-06-07 14:25:56 51°12.633 2°44.877 17.245208 4.235611 32.350709 13.275571
2004-06-07 14:26:56 51°12.703 2°45.245 17.196357 4.217054 32.308164 13.3767
2004-06-07 14:27:56 51°12.773 2°45.615 17.171582 4.214101 32.288159 13.511537
2004-06-07 14:28:56 51°12.845 2°45.987 17.152278 4.206088 32.29139 14.387982
2004-06-07 14:29:56 51°12.945 2°46.341 17.177524 4.208091 32.265316 14.219435
2004-06-07 14:30:56 51°13.059 2°46.686 17.360123 4.205033 32.251974 14.152016
2004-06-07 14:31:59 51°13.175 2°47.046 17.186246 4.207561 32.134731 13.444118
2004-06-07 14:33:00 51°13.287 2°47.393 17.102855 4.181202 32.057299 13.545247
2004-06-07 14:34:00 51°13.398 2°47.735 17.181063 4.172661 32.002181 13.646375
2004-06-07 14:35:00 51°13.509 2°48.079 17.190585 4.176351 31.972404 13.477828
2004-06-07 14:36:01 51°13.584 2°48.34 17.27711 4.175718 31.970465 13.646375
2004-06-07 14:37:05 51°13.601 2°48.503 17.479085 4.195539 31.979891 14.623947
2004-06-07 14:38:05 51°13.625 2°48.607 17.597758 4.20661 31.970748 14.219435
2004-06-07 14:39:10 51°13.648 2°48.656 17.594491 4.208085 31.940976 13.949759
2004-06-07 14:40:16 51°13.667 2°48.696 17.587538 4.207136 31.934077 13.949759
2004-06-07 14:41:16 51°13.702 2°48.745 17.591266 4.207347 31.938717 14.017178
2004-06-07 14:42:16 51°13.756 2°48.799 17.657165 4.211354 31.935009 14.084597
2004-06-07 14:43:15 51°13.816 2°48.869 17.544126 4.213357 31.954819 13.983469
2004-06-07 14:44:16 51°13.87 2°48.949 17.354071 4.200495 31.978974 14.623947
2004-06-07 14:45:16 51°13.916 2°49.027 17.303951 4.187421 31.980933 14.927332
2004-06-07 14:46:21 51°13.958 2°49.106 17.342511 4.187526 31.968013 14.725076
2004-06-07 14:47:20 51°13.992 2°49.173 17.369789 4.190162 31.966881 14.522819
2004-06-07 14:48:20 51°14.023 2°49.239 17.407514 4.19343 31.96597 14.387982
2004-06-07 14:49:21 51°14.053 2°49.306 17.428384 4.19691 31.972599 14.219435
2004-06-07 14:50:20 51°14.082 2°49.369 17.431071 4.197964 31.975251 14.185725
2004-06-07 14:51:21 51°14.111 2°49.433 17.44631 4.199229 31.978547 14.185725
2004-06-07 14:52:20 51°14.141 2°49.494 17.453949 4.201971 31.986356 14.185725
2004-06-07 14:53:21 51°14.171 2°49.557 17.466413 4.200178 31.976286 14.219435
2004-06-07 14:54:20 51°14.199 2°49.619 17.554311 4.204606 31.962905 14.185725
2004-06-07 14:55:21 51°14.229 2°49.681 17.610447 4.209456 31.956016 14.118306
2004-06-07 14:56:20 51°14.257 2°49.742 17.683356 4.214306 31.946319 14.118306
2004-06-07 14:57:21 51°14.285 2°49.805 17.709036 4.219999 31.944371 14.185725
2004-06-07 14:58:20 51°14.312 2°49.866 17.669634 4.219051 31.951142 14.286853
2004-06-07 14:59:20 51°14.339 2°49.93 17.645781 4.21768 31.963471 14.354272
2004-06-07 15:00:20 51°14.366 2°49.993 17.644484 4.216309 31.955293 14.286853
2004-06-07 15:01:20 51°14.395 2°50.056 17.602281 4.214306 31.959431 14.421691
2004-06-07 15:02:21 51°14.425 2°50.119 17.571953 4.2103 31.95517 14.4554
2004-06-07 15:03:20 51°14.454 2°50.181 17.540396 4.207136 31.948921 14.4554
2004-06-07 15:04:20 51°14.483 2°50.245 17.494732 4.203657 31.955997 14.522819
2004-06-07 15:05:21 51°14.512 2°50.31 17.462091 4.201232 31.964608 14.522819
2004-06-07 15:06:20 51°14.54 2°50.373 17.439132 4.199335 31.969692 14.556529
2004-06-07 15:07:20 51°14.568 2°50.438 17.416039 4.197753 31.97518 14.556529
2004-06-07 15:08:21 51°14.598 2°50.503 17.397223 4.196594 31.97565 14.657657
2004-06-07 15:09:20 51°14.627 2°50.567 17.376722 4.194907 31.975657 14.657657
2004-06-07 15:10:21 51°14.654 2°50.635 17.346925 4.192165 31.971865 14.657657
2004-06-07 15:11:21 51°14.676 2°50.703 17.332631 4.190268 31.979284 14.657657
2004-06-07 15:12:20 51°14.696 2°50.773 17.35117 4.189213 31.972604 14.725076
2004-06-07 15:13:20 51°14.715 2°50.85 17.373444 4.189951 31.955889 14.725076
2004-06-07 15:14:20 51°14.747 2°51.009 17.372016 4.190267 31.949965 14.758785
2004-06-07 15:15:21 51°14.793 2°51.233 17.227735 4.186577 31.965107 15.129589
2004-06-07 15:16:21 51°14.843 2°51.336 17.347093 4.181833 31.940205 14.859913
2004-06-07 15:17:20 51°14.887 2°51.396 17.372394 4.184046 31.918832 14.691366
2004-06-07 15:18:20 51°14.927 2°51.444 17.400626 4.187315 31.920825 14.657657
2004-06-07 15:19:20 51°14.964 2°51.484 17.381344 4.188474 31.915781 14.623947
2004-06-07 15:20:20 51°14.996 2°51.52 17.2846 4.188053 31.9495 14.691366
2004-06-07 15:21:20 51°15.025 2°51.552 17.208531 4.18236 31.983888 14.961042
2004-06-07 15:22:21 51°15.054 2°51.583 17.212953 4.179725 31.989096 15.06217
2004-06-07 15:23:21 51°15.093 2°51.597 17.174869 4.179725 31.986208 15.197007
2004-06-07 15:24:21 51°15.121 2°51.602 17.068592 4.178461 32.055307 15.230717
2004-06-07 15:25:20 51°15.141 2°51.604 17.016659 4.177829 32.104562 15.264426
2004-06-07 15:26:29 51°15.156 2°51.595 17.026669 4.177197 32.12596 15.230717
2004-06-07 15:27:29 51°15.158 2°51.57 17.114117 4.177091 32.090078 15.230717
2004-06-07 15:28:29 51°15.151 2°51.548 17.255731 4.181834 32.021569 14.927332
2004-06-07 15:29:29 51°15.143 2°51.532 17.28603 4.186262 31.999291 14.859913
2004-06-07 15:30:28 51°15.129 2°51.525 17.329814 4.188265 31.991581 14.758785
2004-06-07 15:31:28 51°15.111 2°51.531 17.372898 4.191111 31.978413 14.657657
2004-06-07 15:32:29 51°15.09 2°51.549 17.397769 4.193747 31.970384 14.623947
2004-06-07 15:33:29 51°15.067 2°51.581 17.406422 4.194801 31.971314 14.657657
2004-06-07 15:34:29 51°15.018 2°51.681 17.364998 4.19438 31.975768 14.691366
2004-06-07 15:35:29 51°15.001 2°51.972 17.369831 4.190689 31.966771 14.994751
2004-06-07 15:36:29 51°14.984 2°52.33 17.015857 4.183205 32.021711 15.163298
2004-06-07 15:37:29 51°14.95 2°52.702 17.303194 4.164437 31.96016 15.534101
2004-06-07 15:38:29 51°14.914 2°53.074 17.477113 4.182358 31.814071 15.972324
2004-06-07 15:39:29 51°14.824 2°53.411 17.319933 4.176033 31.862652 16.140871
2004-06-07 15:40:28 51°14.733 2°53.738 17.334944 4.178141 31.850805 15.534101
2004-06-07 15:41:29 51°14.653 2°54.093 17.689756 4.170758 31.706542 16.612802
2004-06-07 15:42:29 51°14.574 2°54.443 17.47535 4.173603 31.609515 15.567811
2004-06-07 15:43:29 51°14.489 2°54.757 17.316905 4.147878 31.579332 15.736358
2004-06-07 15:44:29 51°14.387 2°55.042 17.231019 4.130903 31.507665 16.916187
2004-06-07 15:45:29 51°14.264 2°55.261 17.564327 4.11804 31.424864 17.354409
2004-06-07 15:46:29 51°14.154 2°55.419 17.942142 4.095258 30.805232 19.646648
2004-06-07 15:47:29 51°14.054 2°55.505 17.84038 4.026094 30.158247 18.163435